Grayson, Alabama
Current Conditions -  °F | °C
As of 12:55 PM on Tuesday 27 Jan 2015 (Local Time) from KJFX Reporting Station
Clear Clear  
Wind Chill: 57°   Ceiling: Unl
Heat Index: 57°   Visibility: 10mi
Dew Point: 34°   Wind: 13mph
Humidity: 41%   Direction: 320°NW
Pressure: 30.05"   Gusts: 22mph
Location:  34.1254°N, 87.2587°W
Report Text: KJFX 271855Z AUTO 32011G19KT 030V360 10SM CLR 14/01 A3005 RMK A02 P-128
Loading
Personal Weather Stations






























Interactive Weather Map New forecast layout! Learn more

10-Day Weather Forecast

Advertisements
Track Severe Weather on mobile